Etusivu
METAR-TAF:

METAR-TAF

Lentoasemat :

Midway, Yhdysvallat

Leveyspiiri: 28-13N, Pituuspiiri: 177-22W, korkeus merenpinnasta: 4 m

METAR: puuttuu

Aika: 06:40 (16:40 UTC)

Sääennuste

Tämä raportti tehtiin 5 tuntia ja 10 minuuttia sitten, kello 11.30 UTC
Ennuste voimassa 24. päivästä klo 12 UTC - 25. päivään klo 12 UTC
Tuuli 11 kn idästä
Näkyvyys: 10 km
Hajanaisia pilviä 2500 ft:n korkeudessa
Hajonneita pilviä 4000 ft:n korkeudessa

TAF: PMDY 241130Z 2412/2512 09011KT P6SM SCT025 BKN040 AMD NOT SKED

Säähavainnot ja -ennusteet yli 4000 lentoasemalta (METAR- ja TAF-raportit).

Käytössä olevat sääasemat on merkitty karttaan keltaisilla ja punaisilla pisteillä.

Aseta hiiri pisteen päälle nähdäksesi sääaseman nimen.

Klikkaa sitten nähdäksesi säähavainnot ja -ennusteet.

Kartan vaihtaminen: klikkaa mustalla rastilla varustettuja vihreitä pisteitä, niin voit zoomata sisään; viivalla varustettua vihreää pistettä, niin voit zoomata ulos tai vihreitä nuolia, niin pääset viereisille kartoille.


METAR-TAF: